createdAt,value
2023-01-27T00:01:34.875Z,26.23
2023-01-27T00:04:36.657Z,22.38
2023-01-27T00:07:38.951Z,21.40
2023-01-27T00:10:40.947Z,29.80
2023-01-27T00:13:44.365Z,21.70
2023-01-27T00:16:46.273Z,24.23
2023-01-27T00:19:48.071Z,20.70
2023-01-27T00:22:49.834Z,20.38
2023-01-27T00:25:51.688Z,21.73
2023-01-27T00:28:54.879Z,19.45
2023-01-27T00:31:56.821Z,20.70
2023-01-27T00:34:58.618Z,19.58
2023-01-27T00:38:00.648Z,20.50
2023-01-27T00:41:02.860Z,19.50
2023-01-27T00:44:06.302Z,21.60
2023-01-27T00:47:08.075Z,21.33
2023-01-27T00:50:10.764Z,23.25
2023-01-27T00:53:12.783Z,19.85
2023-01-27T00:56:14.891Z,21.75
2023-01-27T00:59:18.074Z,19.27
2023-01-27T01:02:19.859Z,19.42
2023-01-27T01:05:21.685Z,18.70
2023-01-27T01:08:23.649Z,23.50
2023-01-27T01:11:26.119Z,23.50
2023-01-27T01:14:29.698Z,23.05
2023-01-27T01:17:31.537Z,22.25
2023-01-27T01:20:36.753Z,24.40
2023-01-27T01:23:40.329Z,24.23
2023-01-27T01:26:42.308Z,21.20
2023-01-27T01:29:45.703Z,27.13
2023-01-27T01:32:47.565Z,20.77
2023-01-27T01:35:49.360Z,20.30
2023-01-27T01:38:55.402Z,20.17
2023-01-27T01:41:57.312Z,25.15
2023-01-27T01:45:40.489Z,23.23
2023-01-27T01:48:45.481Z,22.42
2023-01-27T01:51:52.111Z,20.90
2023-01-27T01:54:56.843Z,23.35
2023-01-27T01:57:58.877Z,23.67
2023-01-27T02:01:03.954Z,24.23
2023-01-27T02:04:11.644Z,24.48
2023-01-27T02:07:20.035Z,25.13
2023-01-27T02:10:22.114Z,24.70
2023-01-27T02:13:23.998Z,22.55
2023-01-27T02:16:27.322Z,24.20
2023-01-27T02:19:41.415Z,23.55
2023-01-27T02:22:49.902Z,23.80
2023-01-27T02:25:57.668Z,16.38
2023-01-27T02:29:02.337Z,28.25
2023-01-27T02:32:04.277Z,23.48
2023-01-27T02:35:11.977Z,19.35
2023-01-27T02:38:17.435Z,22.70
2023-01-27T02:41:25.743Z,22.83
2023-01-27T02:44:28.022Z,20.70
2023-01-27T02:47:30.291Z,20.85
2023-01-27T02:50:32.186Z,24.73
2023-01-27T02:53:34.369Z,22.70
2023-01-27T02:56:37.838Z,22.27
2023-01-27T02:59:39.678Z,20.75
2023-01-27T03:02:41.495Z,24.50
2023-01-27T03:05:44.311Z,24.33
2023-01-27T03:08:46.404Z,20.27
2023-01-27T03:11:49.966Z,23.73
2023-01-27T03:14:52.618Z,21.10
2023-01-27T03:17:54.439Z,22.65
2023-01-27T03:21:02.296Z,22.27
2023-01-27T03:24:04.680Z,21.17
2023-01-27T03:27:07.919Z,19.88
2023-01-27T03:30:10.637Z,25.25
2023-01-27T03:33:12.607Z,22.55
2023-01-27T03:36:14.558Z,23.25
2023-01-27T03:39:16.438Z,17.83
2023-01-27T03:42:19.711Z,19.70
2023-01-27T03:45:21.626Z,18.98
2023-01-27T03:48:23.832Z,20.73
2023-01-27T03:51:27.227Z,20.45
2023-01-27T03:54:29.046Z,21.35
2023-01-27T03:57:32.532Z,19.92
2023-01-27T04:00:34.332Z,19.88
2023-01-27T04:03:36.294Z,21.63
2023-01-27T04:06:40.593Z,21.05
2023-01-27T04:09:42.425Z,21.73
2023-01-27T04:12:48.162Z,24.90
2023-01-27T04:15:54.993Z,19.15
2023-01-27T04:18:57.331Z,21.50
2023-01-27T04:22:00.758Z,20.70
2023-01-27T04:25:02.762Z,20.45
2023-01-27T04:28:05.983Z,20.63
2023-01-27T04:31:07.933Z,20.02
2023-01-27T04:34:11.050Z,21.38
2023-01-27T04:37:12.837Z,25.77
2023-01-27T04:40:14.979Z,23.88
2023-01-27T04:43:18.388Z,21.67
2023-01-27T04:46:20.421Z,22.73
2023-01-27T04:49:22.215Z,20.70
2023-01-27T04:52:24.265Z,20.88
2023-01-27T04:55:26.690Z,18.00
2023-01-27T04:58:30.128Z,19.13
2023-01-27T05:01:32.162Z,19.35
2023-01-27T05:04:33.927Z,19.75
2023-01-27T05:07:35.874Z,22.58
2023-01-27T05:10:37.881Z,20.63
2023-01-27T05:13:41.456Z,18.92
2023-01-27T05:16:43.457Z,22.23
2023-01-27T05:19:45.277Z,19.63
2023-01-27T05:22:47.165Z,19.58
2023-01-27T05:25:49.006Z,20.30
2023-01-27T05:28:53.076Z,23.70
2023-01-27T05:31:55.124Z,21.20
2023-01-27T05:34:56.933Z,21.65
2023-01-27T05:37:58.922Z,24.08
2023-01-27T05:41:02.617Z,19.90
2023-01-27T05:44:06.290Z,22.65
2023-01-27T05:47:09.033Z,24.77
2023-01-27T05:50:12.500Z,28.85
2023-01-27T05:53:17.642Z,25.08
2023-01-27T05:56:20.482Z,26.25
2023-01-27T05:59:24.385Z,26.50
2023-01-27T06:02:27.216Z,25.25
2023-01-27T06:05:29.301Z,29.85
2023-01-27T06:08:35.066Z,27.00
2023-01-27T06:11:36.955Z,26.65
2023-01-27T06:14:40.368Z,29.25
2023-01-27T06:17:42.243Z,28.60
2023-01-27T06:20:45.005Z,33.00
2023-01-27T06:23:47.371Z,30.52
2023-01-27T06:26:49.126Z,33.47
2023-01-27T06:29:52.292Z,30.75
2023-01-27T06:32:55.354Z,28.40
2023-01-27T06:36:01.155Z,33.35
2023-01-27T06:39:03.247Z,29.33
2023-01-27T06:42:05.191Z,31.00
2023-01-27T06:45:09.603Z,29.42
2023-01-27T06:48:11.831Z,30.80
2023-01-27T06:51:14.117Z,38.83
2023-01-27T06:54:19.583Z,36.60
2023-01-27T06:57:21.952Z,33.90
2023-01-27T07:00:25.384Z,36.88
2023-01-27T07:03:27.254Z,33.83
2023-01-27T07:06:29.137Z,33.67
2023-01-27T07:09:37.537Z,30.40
2023-01-27T07:12:45.422Z,34.28
2023-01-27T07:15:54.627Z,32.08
2023-01-27T07:18:57.252Z,35.25
2023-01-27T07:21:59.491Z,34.60
2023-01-27T07:25:03.119Z,34.20
2023-01-27T07:28:05.828Z,33.78
2023-01-27T07:31:09.501Z,30.98
2023-01-27T07:34:12.307Z,33.45
2023-01-27T07:37:14.634Z,36.22
2023-01-27T07:40:17.171Z,29.80
2023-01-27T07:43:19.398Z,31.83
2023-01-27T07:46:26.017Z,36.38
2023-01-27T07:49:27.924Z,28.20
2023-01-27T07:52:33.648Z,28.25
2023-01-27T07:55:35.570Z,36.15
2023-01-27T07:58:38.173Z,30.60
2023-01-27T08:01:42.394Z,30.60
2023-01-27T08:04:52.849Z,31.92
2023-01-27T08:07:58.629Z,32.42
2023-01-27T08:11:01.091Z,27.40
2023-01-27T08:14:03.234Z,31.75
2023-01-27T08:17:06.511Z,28.88
2023-01-27T08:20:10.169Z,30.42
2023-01-27T08:23:12.025Z,29.08
2023-01-27T08:26:14.665Z,33.33
2023-01-27T08:29:18.022Z,27.33
2023-01-27T08:32:21.540Z,27.88
2023-01-27T08:35:23.478Z,27.25
2023-01-27T08:38:25.341Z,29.55
2023-01-27T08:41:27.677Z,28.35
2023-01-27T08:44:29.583Z,28.15
2023-01-27T08:47:32.912Z,27.13
2023-01-27T08:50:35.758Z,28.02
2023-01-27T08:53:39.197Z,35.30
2023-01-27T08:56:41.413Z,30.20
2023-01-27T08:59:44.487Z,23.98
2023-01-27T09:02:47.895Z,25.90
2023-01-27T09:05:49.780Z,25.63
2023-01-27T09:08:52.284Z,25.33
2023-01-27T09:11:54.110Z,27.70
2023-01-27T09:14:56.116Z,27.35
2023-01-27T09:17:59.427Z,26.98
2023-01-27T09:21:08.709Z,26.92
2023-01-27T09:24:10.771Z,29.48
2023-01-27T09:27:12.835Z,30.35
2023-01-27T09:30:16.443Z,31.52
2023-01-27T09:33:20.143Z,27.15
2023-01-27T09:36:22.458Z,27.13
2023-01-27T09:39:25.952Z,28.35
2023-01-27T09:42:42.428Z,28.20
2023-01-27T09:46:09.110Z,25.58
2023-01-27T09:49:25.719Z,33.10
2023-01-27T09:52:47.854Z,33.83
2023-01-27T09:55:57.825Z,31.45
2023-01-27T09:59:13.297Z,32.28
2023-01-27T10:02:33.661Z,23.80
2023-01-27T10:05:55.563Z,26.10
2023-01-27T10:09:12.112Z,32.38
2023-01-27T10:12:35.270Z,31.42
2023-01-27T10:15:55.646Z,25.70
2023-01-27T10:19:21.236Z,23.60
2023-01-27T10:22:34.084Z,22.80
2023-01-27T10:25:48.930Z,29.50
2023-01-27T10:28:56.392Z,27.48
2023-01-27T10:32:06.926Z,25.10
2023-01-27T10:35:16.731Z,28.95
2023-01-27T10:38:32.851Z,27.23
2023-01-27T10:41:43.773Z,26.27
2023-01-27T10:45:05.585Z,33.05
2023-01-27T10:48:27.832Z,31.77
2023-01-27T10:51:33.853Z,24.60
2023-01-27T10:54:42.743Z,21.92
2023-01-27T10:57:50.757Z,23.58
2023-01-27T11:01:19.915Z,21.60
2023-01-27T11:04:27.712Z,24.02
2023-01-27T11:07:32.764Z,24.48
2023-01-27T11:10:41.507Z,25.35
2023-01-27T11:13:43.993Z,24.10
2023-01-27T11:16:49.652Z,28.70
2023-01-27T11:19:58.724Z,26.50
2023-01-27T11:26:20.317Z,23.85
2023-01-27T11:29:32.199Z,25.65
2023-01-27T11:32:48.161Z,22.48
2023-01-27T11:35:51.356Z,24.67
2023-01-27T11:38:54.750Z,23.23
2023-01-27T11:41:58.113Z,22.98
2023-01-27T11:45:01.791Z,15.05
2023-01-27T11:48:08.502Z,17.73
2023-01-27T11:51:15.770Z,18.70
2023-01-27T11:54:21.822Z,20.33
2023-01-27T11:57:26.546Z,21.88
2023-01-27T12:00:33.850Z,22.92
2023-01-27T12:03:48.972Z,21.70
2023-01-27T12:06:55.198Z,21.48
2023-01-27T12:09:57.060Z,24.27
2023-01-27T12:13:07.355Z,24.38
2023-01-27T12:16:09.336Z,21.77
2023-01-27T12:19:24.259Z,20.58
2023-01-27T12:22:31.321Z,20.65
2023-01-27T12:25:44.816Z,22.05
2023-01-27T12:28:53.287Z,21.33
2023-01-27T12:32:01.198Z,23.55
2023-01-27T12:35:04.341Z,21.35
2023-01-27T12:38:15.186Z,16.58
2023-01-27T12:41:25.341Z,19.83
2023-01-27T12:44:41.338Z,18.48
2023-01-27T12:47:56.437Z,18.52
2023-01-27T12:51:06.730Z,18.88
2023-01-27T12:54:17.511Z,19.52
2023-01-27T12:57:21.388Z,19.90
2023-01-27T13:00:26.579Z,21.48
2023-01-27T13:03:29.596Z,25.08
2023-01-27T13:06:39.314Z,21.63
2023-01-27T13:09:50.530Z,21.02
2023-01-27T13:12:54.931Z,21.23
2023-01-27T13:16:05.418Z,19.30
2023-01-27T13:19:17.078Z,22.58
2023-01-27T13:22:21.696Z,21.23
2023-01-27T13:25:28.305Z,26.33
2023-01-27T13:28:51.340Z,26.60
2023-01-27T13:32:01.967Z,27.30
2023-01-27T13:35:13.574Z,23.10
2023-01-27T13:38:23.130Z,24.60
2023-01-27T13:41:41.320Z,19.75
2023-01-27T13:44:48.167Z,19.92
2023-01-27T13:47:57.604Z,22.70
2023-01-27T13:51:05.535Z,21.05
2023-01-27T13:54:07.506Z,19.27
2023-01-27T13:57:25.675Z,22.52
2023-01-27T14:00:35.404Z,22.08
2023-01-27T14:04:04.942Z,22.83
2023-01-27T14:07:17.856Z,19.52
2023-01-27T14:10:25.517Z,20.50
2023-01-27T14:13:40.197Z,22.30
2023-01-27T14:16:58.207Z,23.10
2023-01-27T14:20:19.042Z,26.25
2023-01-27T14:23:34.500Z,25.95
2023-01-27T14:26:50.562Z,25.17
2023-01-27T14:30:00.018Z,24.95
2023-01-27T14:33:12.264Z,25.50
2023-01-27T14:36:20.508Z,24.95
2023-01-27T14:39:31.306Z,24.13
2023-01-27T14:42:42.719Z,23.30
2023-01-27T14:45:51.004Z,24.92
2023-01-27T14:49:08.675Z,25.17
2023-01-27T14:52:23.856Z,27.98
2023-01-27T14:55:37.601Z,24.70
2023-01-27T14:58:51.105Z,24.08
2023-01-27T15:02:01.351Z,24.95
2023-01-27T15:05:12.488Z,28.70
2023-01-27T15:08:24.876Z,27.48
2023-01-27T15:11:39.861Z,26.23
2023-01-27T15:15:03.392Z,24.48
2023-01-27T15:18:27.875Z,23.35
2023-01-27T15:21:55.137Z,24.70
2023-01-27T15:25:26.144Z,20.92
2023-01-27T15:28:31.265Z,26.73
2023-01-27T15:31:33.677Z,27.48
2023-01-27T15:34:35.804Z,31.75
2023-01-27T15:37:56.198Z,30.27
2023-01-27T15:41:16.383Z,33.92
2023-01-27T15:44:27.240Z,28.48
2023-01-27T15:47:31.594Z,39.60
2023-01-27T15:50:38.412Z,34.20
2023-01-27T15:53:48.021Z,23.13
2023-01-27T15:56:53.836Z,23.33
2023-01-27T16:00:02.558Z,25.45
2023-01-27T16:03:14.950Z,24.20
2023-01-27T16:06:21.808Z,24.80
2023-01-27T16:09:32.475Z,16.45
2023-01-27T16:12:41.599Z,16.38
2023-01-27T16:15:43.966Z,21.58
2023-01-27T16:18:51.689Z,18.42
2023-01-27T16:21:57.755Z,20.45
2023-01-27T16:25:11.684Z,19.60
2023-01-27T16:28:20.370Z,22.23
2023-01-27T16:31:26.727Z,22.45
2023-01-27T16:34:35.204Z,21.50
2023-01-27T16:37:44.139Z,23.55
2023-01-27T16:43:58.265Z,25.75
2023-01-27T16:50:40.582Z,29.50
2023-01-27T16:53:48.463Z,27.67
2023-01-27T16:56:52.852Z,26.17
2023-01-27T16:59:59.199Z,30.92
2023-01-27T17:03:08.325Z,32.63
2023-01-27T17:06:16.039Z,30.80
2023-01-27T17:09:23.787Z,32.30
2023-01-27T17:12:31.526Z,32.92
2023-01-27T17:15:38.663Z,35.13
2023-01-27T17:18:52.301Z,27.80
2023-01-27T17:21:59.972Z,36.80
2023-01-27T17:29:35.528Z,35.67
2023-01-27T17:32:42.043Z,40.53
2023-01-27T17:35:49.907Z,36.85
2023-01-27T17:38:55.022Z,37.30
2023-01-27T17:41:57.439Z,30.65
2023-01-27T17:45:21.950Z,29.80
2023-01-27T17:48:29.685Z,26.27
2023-01-27T17:51:37.941Z,27.15
2023-01-27T17:54:41.538Z,30.77
2023-01-27T17:57:45.977Z,27.08
2023-01-27T18:00:49.186Z,26.92
2023-01-27T18:03:56.949Z,24.00
2023-01-27T18:06:59.636Z,27.75
2023-01-27T18:10:01.661Z,25.98
2023-01-27T18:13:14.165Z,27.90
2023-01-27T18:16:17.917Z,27.55
2023-01-27T18:19:23.190Z,31.10
2023-01-27T18:22:26.276Z,31.85
2023-01-27T18:25:29.874Z,28.77
2023-01-27T18:28:35.952Z,29.30
2023-01-27T18:31:46.188Z,28.67
2023-01-27T18:34:55.262Z,37.80
2023-01-27T18:37:59.595Z,31.45
2023-01-27T18:41:11.109Z,35.97
2023-01-27T18:44:14.939Z,29.95
2023-01-27T18:47:26.272Z,31.73
2023-01-27T18:50:31.664Z,30.15
2023-01-27T18:53:35.821Z,27.50
2023-01-27T18:56:39.007Z,29.90
2023-01-27T18:59:42.657Z,33.25
2023-01-27T19:02:47.528Z,34.75
2023-01-27T19:05:53.436Z,34.30
2023-01-27T19:08:56.105Z,40.15
2023-01-27T19:11:59.081Z,43.22
2023-01-27T19:15:02.266Z,61.25
2023-01-27T19:18:15.364Z,153.98
2023-01-27T19:21:20.774Z,69.70
2023-01-27T19:24:24.346Z,38.33
2023-01-27T19:27:28.096Z,39.47
2023-01-27T19:30:31.588Z,37.80
2023-01-27T19:33:34.806Z,34.05
2023-01-27T19:36:43.877Z,33.22
2023-01-27T19:42:54.714Z,33.85
2023-01-27T19:45:57.406Z,34.67
2023-01-27T19:49:00.023Z,38.22
2023-01-27T19:52:05.013Z,35.40
2023-01-27T19:55:13.109Z,35.03
2023-01-27T19:58:23.609Z,36.97
2023-01-27T20:01:26.943Z,34.08
2023-01-27T20:04:29.694Z,35.70
2023-01-27T20:07:33.969Z,31.20
2023-01-27T20:10:36.760Z,33.17
2023-01-27T20:13:39.824Z,33.53
2023-01-27T20:16:43.796Z,28.25
2023-01-27T20:19:47.412Z,31.38
2023-01-27T20:22:51.985Z,30.27
2023-01-27T20:29:15.545Z,32.90
2023-01-27T20:32:17.788Z,33.38
2023-01-27T20:35:22.997Z,35.83
2023-01-27T20:38:29.263Z,34.10
2023-01-27T20:41:32.192Z,36.20
2023-01-27T20:44:38.613Z,34.47
2023-01-27T20:47:41.227Z,31.65
2023-01-27T20:50:44.511Z,37.15
2023-01-27T20:53:49.333Z,35.17
2023-01-27T20:56:52.417Z,32.60
2023-01-27T20:59:58.642Z,39.63
2023-01-27T21:03:01.555Z,34.55
2023-01-27T21:06:06.343Z,31.55
2023-01-27T21:09:11.234Z,34.38
2023-01-27T21:12:13.660Z,33.60
2023-01-27T21:15:16.609Z,31.63
2023-01-27T21:18:19.264Z,35.78
2023-01-27T21:21:23.881Z,34.17
2023-01-27T21:24:31.607Z,32.70
2023-01-27T21:27:35.896Z,28.17
2023-01-27T21:30:38.253Z,35.00
2023-01-27T21:33:41.253Z,31.25
2023-01-27T21:36:43.416Z,31.38
2023-01-27T21:39:47.358Z,28.63
2023-01-27T21:42:49.602Z,25.88
2023-01-27T21:45:57.200Z,24.75
2023-01-27T21:48:59.459Z,26.85
2023-01-27T21:52:01.709Z,27.45
2023-01-27T21:55:07.593Z,26.42
2023-01-27T21:58:09.958Z,26.27
2023-01-27T22:01:12.485Z,25.33
2023-01-27T22:04:15.514Z,26.15
2023-01-27T22:07:19.321Z,30.48
2023-01-27T22:10:27.650Z,29.63
2023-01-27T22:13:29.538Z,39.10
2023-01-27T22:16:31.602Z,30.65
2023-01-27T22:19:33.616Z,30.05
2023-01-27T22:22:35.471Z,32.13
2023-01-27T22:25:38.878Z,26.75
2023-01-27T22:28:40.829Z,27.33
2023-01-27T22:31:43.127Z,24.95
2023-01-27T22:34:46.339Z,26.70
2023-01-27T22:37:48.937Z,24.13
2023-01-27T22:40:56.797Z,27.30
2023-01-27T22:43:58.619Z,25.00
2023-01-27T22:47:00.958Z,23.45
2023-01-27T22:50:03.399Z,21.17
2023-01-27T22:53:05.594Z,22.85
2023-01-27T22:56:09.612Z,24.23
2023-01-27T22:59:12.927Z,24.80
2023-01-27T23:02:15.271Z,25.42
2023-01-27T23:05:17.874Z,25.40
2023-01-27T23:08:20.152Z,24.98
2023-01-27T23:11:24.225Z,25.60
2023-01-27T23:14:26.248Z,24.15
2023-01-27T23:17:28.060Z,24.58
2023-01-27T23:20:30.088Z,24.30
2023-01-27T23:23:31.990Z,23.73
2023-01-27T23:26:35.556Z,22.00
2023-01-27T23:29:37.397Z,24.60
2023-01-27T23:32:39.504Z,23.60
2023-01-27T23:35:42.111Z,25.60
2023-01-27T23:38:44.171Z,26.60
2023-01-27T23:41:47.621Z,25.45
2023-01-27T23:44:49.892Z,23.02
2023-01-27T23:47:51.753Z,24.30
2023-01-27T23:50:55.075Z,22.67
2023-01-27T23:53:56.868Z,25.80
2023-01-27T23:57:00.596Z,24.70
